createdAt,value
2018-04-21T00:28:35.922Z,4.9
2018-04-21T00:43:54.022Z,5.4
2018-04-21T00:58:53.744Z,4.5
2018-04-21T01:18:54.401Z,5.3
2018-04-21T01:34:06.987Z,4.5
2018-04-21T01:49:06.957Z,4.2
2018-04-21T02:04:06.958Z,5.5
2018-04-21T02:24:06.999Z,4.2
2018-04-21T02:54:21.006Z,4.3
2018-04-21T03:14:22.445Z,3.5
2018-04-21T03:44:34.929Z,4.4
2018-04-21T03:59:35.206Z,4.4
2018-04-21T04:19:35.063Z,4.1
2018-04-21T05:09:49.298Z,6.2
2018-04-21T05:25:01.928Z,4.4
2018-04-21T05:40:01.891Z,4.4
2018-04-21T05:55:01.770Z,4.1
2018-04-21T06:15:01.749Z,3.8
2018-04-21T06:30:16.611Z,3.6
2018-04-21T06:45:16.456Z,3.7
2018-04-21T07:05:17.061Z,5.2
2018-04-21T07:50:29.212Z,5.6
2018-04-21T09:00:55.571Z,4.7
2018-04-21T09:15:55.684Z,3.6
2018-04-21T09:31:08.724Z,4.2
2018-04-21T09:46:08.625Z,3.9
2018-04-21T10:21:22.391Z,4.1
2018-04-21T10:36:22.701Z,3.9
2018-04-21T10:56:22.684Z,4.1
2018-04-21T11:11:22.681Z,4.6
2018-04-21T11:26:38.954Z,4.2
2018-04-21T12:01:40.046Z,4.1
2018-04-21T12:16:52.664Z,3.6
2018-04-21T12:31:52.696Z,4.3
2018-04-21T12:51:53.312Z,3.4
2018-04-21T13:06:52.890Z,2.9
2018-04-21T13:22:07.400Z,3.6
2018-04-21T13:42:07.341Z,3
2018-04-21T13:57:07.354Z,2.8
2018-04-21T14:12:07.177Z,2.6
2018-04-21T14:27:08.763Z,3.1
2018-04-21T14:47:20.972Z,3.3
2018-04-21T15:02:20.977Z,3.8
2018-04-21T15:17:36.249Z,3.3
2018-04-21T15:37:36.239Z,4.1
2018-04-21T15:52:37.986Z,3.4
2018-04-21T16:07:38.164Z,3.4
2018-04-21T16:22:39.053Z,3.9
2018-04-21T16:42:52.175Z,3.6
2018-04-21T16:57:52.171Z,3.1
2018-04-21T17:12:52.383Z,4.5
2018-04-21T17:32:52.417Z,4.1
2018-04-21T17:47:52.427Z,5.5
2018-04-21T18:18:06.290Z,4.1
2018-04-21T18:53:24.207Z,8
2018-04-21T19:43:40.853Z,6.6
2018-04-21T20:13:41.529Z,7
2018-04-21T21:24:08.140Z,5.5
2018-04-21T21:54:08.237Z,5.5
2018-04-21T23:34:37.307Z,8.1
